Portada
METAR-TAF:

METAR-TAF

Aeroports :

Sapporo, Japó

latitud: 43-07N, longitud: 141-23E, altitud: 8 m

Observació

L'informe es va fer fa 16 minuts, a les 00:47 UTC
Vent 13 kt del Oest/Nord-Oest
Temperatura -2°C
Humitat 93%
Pressió 1016 hPa
Visibilitat: 5000 m
Escasses núvols a una alçada de 700 ft
Núvols disperses a una alçada de 1500 ft
Cel ennuvolat a una alçada de 2500 ft
xàfecs de neu

METAR: RJCO 040047Z 30013KT 5000 -SHSN FEW007 SCT015 BKN025 M02/M03 Q1016 RMK 2ST007 3ST015 5CU025 A3002

Hora: 10:03 (01:03 UTC)


TAF: manca

Observacions i pronòstics meteorològics de més de 4000 aeroports (METAR i TAF).

Les estacions disponibles són els punts grocs i vermells al mapa.

Posi el ratolí al punt desitjat per veure el nom de l'estació.

Feu clic per veure les observacions i els pronòstics meteorològics.

Per canviar el mapa: feu clic els botons verds amb una creu de color negre per apropar; al botó verd amb un guió per allunyar la imatge; o en les fletxes verdes per a mapes adjacents.


METAR-TAF: